createdAt,value
2017-07-20T00:02:07.955Z,18.88
2017-07-20T00:04:40.226Z,18.87
2017-07-20T00:07:12.554Z,18.86
2017-07-20T00:09:44.882Z,18.86
2017-07-20T00:12:17.086Z,18.88
2017-07-20T00:14:49.365Z,18.85
2017-07-20T00:17:21.673Z,18.84
2017-07-20T00:19:54.050Z,18.82
2017-07-20T00:22:26.477Z,18.85
2017-07-20T00:24:58.678Z,18.89
2017-07-20T00:27:31.005Z,18.89
2017-07-20T00:30:03.421Z,18.92
2017-07-20T00:32:35.749Z,18.94
2017-07-20T00:35:08.158Z,18.90
2017-07-20T00:37:40.402Z,18.87
2017-07-20T00:40:12.870Z,18.86
2017-07-20T00:42:45.129Z,18.88
2017-07-20T00:45:17.572Z,18.84
2017-07-20T00:47:50.088Z,18.84
2017-07-20T00:50:22.217Z,18.87
2017-07-20T00:52:54.754Z,18.86
2017-07-20T00:55:27.107Z,18.94
2017-07-20T00:57:59.662Z,19.04
2017-07-20T01:00:31.941Z,19.10
2017-07-20T01:03:04.327Z,19.19
2017-07-20T01:05:36.762Z,19.20
2017-07-20T01:08:09.237Z,19.18
2017-07-20T01:10:41.618Z,19.17
2017-07-20T01:13:14.042Z,19.20
2017-07-20T01:15:46.445Z,19.23
2017-07-20T01:18:18.981Z,19.21
2017-07-20T01:20:52.403Z,19.17
2017-07-20T01:23:24.836Z,19.22
2017-07-20T01:25:57.185Z,19.20
2017-07-20T01:28:29.470Z,19.22
2017-07-20T01:31:01.866Z,19.28
2017-07-20T01:33:34.151Z,19.33
2017-07-20T01:36:06.570Z,19.29
2017-07-20T01:38:38.963Z,19.33
2017-07-20T01:41:11.249Z,19.35
2017-07-20T01:43:43.502Z,19.39
2017-07-20T01:46:15.962Z,19.34
2017-07-20T01:48:48.116Z,19.24
2017-07-20T01:51:20.526Z,19.27
2017-07-20T01:53:52.813Z,19.35
2017-07-20T01:56:25.594Z,19.39
2017-07-20T01:58:58.002Z,19.39
2017-07-20T02:01:30.097Z,19.37
2017-07-20T02:04:02.369Z,19.39
2017-07-20T02:06:34.646Z,19.39
2017-07-20T02:09:06.924Z,19.41
2017-07-20T02:11:39.198Z,19.41
2017-07-20T02:14:11.558Z,19.34
2017-07-20T02:16:43.721Z,19.33
2017-07-20T02:19:16.123Z,19.38
2017-07-20T02:21:48.645Z,19.42
2017-07-20T02:24:20.722Z,19.44
2017-07-20T02:26:53.109Z,19.49
2017-07-20T02:29:25.461Z,19.44
2017-07-20T02:31:57.757Z,19.34
2017-07-20T02:34:30.137Z,19.38
2017-07-20T02:37:02.517Z,19.30
2017-07-20T02:39:34.748Z,19.28
2017-07-20T02:42:07.051Z,19.23
2017-07-20T02:44:39.390Z,19.10
2017-07-20T02:47:11.795Z,19.15
2017-07-20T02:49:44.160Z,19.18
2017-07-20T02:52:16.650Z,19.23
2017-07-20T02:54:49.107Z,19.24
2017-07-20T02:57:21.362Z,19.30
2017-07-20T02:59:54.150Z,19.32
2017-07-20T03:02:26.121Z,19.25
2017-07-20T03:04:58.521Z,19.22
2017-07-20T03:07:30.846Z,19.21
2017-07-20T03:10:03.573Z,19.20
2017-07-20T03:12:35.496Z,19.14
2017-07-20T03:15:07.818Z,19.14
2017-07-20T03:17:40.311Z,19.13
2017-07-20T03:20:12.737Z,18.98
2017-07-20T03:22:45.077Z,18.87
2017-07-20T03:25:17.520Z,18.80
2017-07-20T03:27:49.920Z,18.80
2017-07-20T03:30:22.134Z,18.82
2017-07-20T03:32:54.522Z,18.88
2017-07-20T03:35:26.878Z,18.92
2017-07-20T03:37:59.285Z,18.91
2017-07-20T03:40:31.582Z,18.89
2017-07-20T03:43:04.037Z,18.95
2017-07-20T03:45:36.285Z,19.03
2017-07-20T03:48:08.633Z,19.06
2017-07-20T03:50:40.797Z,18.96
2017-07-20T03:53:13.207Z,18.94
2017-07-20T03:55:45.592Z,18.99
2017-07-20T03:58:18.032Z,19.03
2017-07-20T04:00:50.346Z,19.13
2017-07-20T04:03:22.864Z,19.15
2017-07-20T04:05:55.255Z,19.19
2017-07-20T04:08:27.614Z,19.22
2017-07-20T04:10:59.963Z,19.19
2017-07-20T04:13:32.354Z,19.23
2017-07-20T04:16:04.837Z,19.28
2017-07-20T04:18:37.272Z,19.36
2017-07-20T04:21:09.532Z,19.44
2017-07-20T04:23:41.942Z,19.47
2017-07-20T04:26:14.438Z,19.47
2017-07-20T04:28:46.933Z,19.52
2017-07-20T04:31:19.297Z,19.59
2017-07-20T04:33:51.713Z,19.64
2017-07-20T04:36:24.057Z,19.66
2017-07-20T04:38:56.516Z,19.70
2017-07-20T04:41:28.968Z,19.52
2017-07-20T04:44:01.466Z,19.31
2017-07-20T04:46:33.917Z,19.20
2017-07-20T04:49:06.402Z,19.13
2017-07-20T04:51:38.825Z,19.15
2017-07-20T04:54:11.208Z,19.01
2017-07-20T04:56:43.478Z,19.01
2017-07-20T04:59:15.827Z,19.09
2017-07-20T05:01:48.284Z,19.15
2017-07-20T05:04:20.577Z,19.20
2017-07-20T05:06:52.941Z,19.24
2017-07-20T05:09:25.316Z,19.21
2017-07-20T05:11:57.746Z,19.21
2017-07-20T05:14:30.037Z,19.25
2017-07-20T05:17:02.349Z,19.28
2017-07-20T05:19:34.664Z,19.28
2017-07-20T05:22:07.196Z,19.31
2017-07-20T05:24:39.505Z,19.39
2017-07-20T05:27:11.938Z,19.48
2017-07-20T05:29:44.385Z,19.60
2017-07-20T05:32:16.794Z,19.65
2017-07-20T05:34:49.203Z,19.70
2017-07-20T05:37:21.802Z,19.76
2017-07-20T05:39:54.047Z,19.75
2017-07-20T05:42:26.398Z,19.78
2017-07-20T05:44:58.777Z,19.81
2017-07-20T05:47:31.168Z,19.84
2017-07-20T05:50:03.670Z,19.87
2017-07-20T05:52:36.150Z,19.88
2017-07-20T05:55:08.939Z,19.85
2017-07-20T05:57:41.138Z,19.88
2017-07-20T06:00:13.685Z,19.88
2017-07-20T06:02:46.118Z,19.90
2017-07-20T06:05:18.542Z,20.02
2017-07-20T06:07:50.949Z,19.93
2017-07-20T06:10:23.426Z,19.89
2017-07-20T06:12:55.846Z,19.86
2017-07-20T06:15:28.238Z,19.95
2017-07-20T06:18:00.650Z,19.87
2017-07-20T06:20:33.294Z,19.82
2017-07-20T06:23:05.549Z,19.83
2017-07-20T06:25:37.906Z,19.83
2017-07-20T06:28:10.331Z,19.83
2017-07-20T06:30:42.706Z,19.88
2017-07-20T06:33:15.200Z,19.92
2017-07-20T06:35:47.616Z,19.94
2017-07-20T06:38:20.015Z,20.05
2017-07-20T06:40:52.777Z,20.16
2017-07-20T06:43:24.797Z,20.29
2017-07-20T06:45:57.217Z,20.41
2017-07-20T06:48:29.856Z,20.53
2017-07-20T06:51:02.322Z,20.61
2017-07-20T06:53:34.738Z,20.69
2017-07-20T06:56:07.058Z,20.74
2017-07-20T06:58:39.633Z,20.80
2017-07-20T07:01:11.997Z,20.87
2017-07-20T07:03:44.372Z,20.89
2017-07-20T07:06:16.770Z,20.88
2017-07-20T07:08:49.121Z,20.89
2017-07-20T07:11:21.650Z,20.92
2017-07-20T07:13:54.674Z,20.91
2017-07-20T07:16:27.458Z,20.81
2017-07-20T07:18:59.801Z,20.72
2017-07-20T07:21:32.197Z,20.67
2017-07-20T07:24:04.713Z,20.63
2017-07-20T07:26:37.041Z,20.62
2017-07-20T07:29:09.430Z,20.67
2017-07-20T07:31:41.757Z,20.68
2017-07-20T07:34:14.102Z,20.63
2017-07-20T07:36:46.458Z,20.61
2017-07-20T07:39:19.125Z,20.66
2017-07-20T07:41:51.553Z,20.65
2017-07-20T07:44:23.964Z,20.64
2017-07-20T07:46:56.445Z,20.61
2017-07-20T07:49:28.737Z,20.61
2017-07-20T07:52:01.169Z,20.67
2017-07-20T07:54:33.665Z,20.68
2017-07-20T07:57:06.017Z,20.76
2017-07-20T07:59:38.705Z,20.89
2017-07-20T08:02:10.775Z,21.01
2017-07-20T08:04:44.284Z,21.16
2017-07-20T08:07:16.851Z,21.36
2017-07-20T08:09:49.150Z,21.63
2017-07-20T08:12:21.693Z,21.95
2017-07-20T08:14:54.298Z,22.08
2017-07-20T08:17:26.653Z,22.22
2017-07-20T08:19:59.086Z,22.36
2017-07-20T08:22:31.341Z,22.42
2017-07-20T08:25:03.798Z,22.45
2017-07-20T08:27:36.574Z,22.49
2017-07-20T08:30:09.153Z,22.49
2017-07-20T08:32:41.621Z,22.42
2017-07-20T08:35:14.017Z,22.65
2017-07-20T08:37:46.373Z,22.89
2017-07-20T08:40:18.873Z,23.15
2017-07-20T08:42:51.221Z,23.29
2017-07-20T08:45:23.635Z,23.26
2017-07-20T08:47:56.154Z,23.14
2017-07-20T08:50:28.798Z,23.04
2017-07-20T08:53:01.174Z,23.00
2017-07-20T08:55:33.635Z,22.98
2017-07-20T08:58:06.114Z,22.99
2017-07-20T09:00:38.589Z,23.02
2017-07-20T09:03:11.241Z,23.07
2017-07-20T09:05:43.503Z,23.00
2017-07-20T09:08:16.061Z,23.03
2017-07-20T09:10:48.425Z,23.12
2017-07-20T09:13:20.721Z,23.26
2017-07-20T09:15:53.193Z,23.40
2017-07-20T09:18:25.669Z,23.42
2017-07-20T09:20:58.088Z,23.46
2017-07-20T09:23:30.500Z,23.53
2017-07-20T09:26:02.854Z,23.68
2017-07-20T09:28:35.295Z,23.91
2017-07-20T09:31:07.735Z,24.19
2017-07-20T09:33:40.301Z,24.40
2017-07-20T09:36:12.534Z,24.67
2017-07-20T09:38:45.022Z,24.85
2017-07-20T09:41:17.457Z,25.01
2017-07-20T09:43:49.824Z,25.04
2017-07-20T09:46:22.287Z,24.96
2017-07-20T09:48:54.841Z,24.81
2017-07-20T09:51:27.190Z,24.52
2017-07-20T09:53:59.613Z,24.40
2017-07-20T09:56:32.202Z,24.26
2017-07-20T09:59:04.753Z,24.09
2017-07-20T10:01:37.130Z,23.98
2017-07-20T10:04:09.556Z,23.77
2017-07-20T10:06:42.190Z,23.66
2017-07-20T10:09:14.325Z,23.58
2017-07-20T10:11:46.760Z,23.45
2017-07-20T10:14:19.125Z,23.33
2017-07-20T10:16:51.429Z,23.23
2017-07-20T10:19:23.790Z,23.16
2017-07-20T10:21:56.061Z,23.23
2017-07-20T10:24:28.398Z,23.27
2017-07-20T10:27:00.805Z,23.42
2017-07-20T10:29:33.260Z,23.58
2017-07-20T10:32:05.702Z,23.72
2017-07-20T10:34:37.911Z,23.63
2017-07-20T10:37:10.309Z,23.65
2017-07-20T10:39:42.684Z,23.62
2017-07-20T10:42:15.257Z,23.55
2017-07-20T10:44:47.801Z,23.52
2017-07-20T10:47:20.368Z,23.58
2017-07-20T10:49:52.678Z,23.58
2017-07-20T10:52:25.222Z,23.60
2017-07-20T10:54:57.590Z,23.67
2017-07-20T10:57:30.664Z,23.81
2017-07-20T11:00:03.708Z,23.84
2017-07-20T11:02:35.751Z,23.91
2017-07-20T11:05:08.125Z,24.00
2017-07-20T11:07:40.597Z,24.11
2017-07-20T11:10:12.966Z,24.16
2017-07-20T11:12:45.300Z,24.27
2017-07-20T11:15:17.706Z,24.51
2017-07-20T11:17:50.173Z,24.74
2017-07-20T11:20:22.434Z,25.10
2017-07-20T11:22:54.854Z,25.42
2017-07-20T11:25:27.277Z,25.54
2017-07-20T11:27:59.537Z,25.61
2017-07-20T11:30:31.958Z,25.68
2017-07-20T11:33:04.243Z,25.43
2017-07-20T11:35:36.672Z,25.45
2017-07-20T11:38:09.482Z,25.43
2017-07-20T11:40:41.632Z,25.54
2017-07-20T11:43:13.861Z,25.60
2017-07-20T11:45:46.214Z,25.67
2017-07-20T11:48:18.688Z,26.07
2017-07-20T11:50:50.838Z,26.17
2017-07-20T11:53:23.343Z,26.23
2017-07-20T11:55:55.798Z,26.45
2017-07-20T11:58:28.153Z,26.54
2017-07-20T12:01:00.594Z,26.90
2017-07-20T12:03:32.968Z,27.02
2017-07-20T12:06:05.585Z,27.28
2017-07-20T12:08:37.616Z,27.39
2017-07-20T12:11:09.928Z,27.60
2017-07-20T12:13:42.334Z,27.66
2017-07-20T12:16:14.638Z,27.89
2017-07-20T12:18:47.049Z,27.80
2017-07-20T12:21:19.344Z,28.20
2017-07-20T12:23:51.854Z,28.47
2017-07-20T12:26:24.413Z,28.44
2017-07-20T12:28:56.367Z,27.99
2017-07-20T12:31:28.701Z,27.90
2017-07-20T12:34:01.089Z,27.94
2017-07-20T12:36:33.453Z,27.81
2017-07-20T12:39:05.841Z,27.76
2017-07-20T12:41:38.225Z,27.91
2017-07-20T12:44:10.598Z,28.12
2017-07-20T12:46:42.939Z,28.25
2017-07-20T12:49:15.347Z,28.35
2017-07-20T12:51:47.676Z,28.63
2017-07-20T12:54:20.104Z,28.78
2017-07-20T12:56:52.380Z,29.11
2017-07-20T12:59:24.813Z,28.98
2017-07-20T13:01:57.096Z,29.11
2017-07-20T13:04:29.493Z,29.86
2017-07-20T13:07:01.807Z,30.89
2017-07-20T13:09:34.308Z,31.47
2017-07-20T13:12:06.586Z,31.11
2017-07-20T13:14:39.082Z,30.78
2017-07-20T13:17:11.469Z,30.87
2017-07-20T13:19:44.205Z,30.52
2017-07-20T13:22:16.200Z,30.54
2017-07-20T13:24:48.583Z,30.54
2017-07-20T13:27:21.032Z,30.65
2017-07-20T13:29:53.446Z,30.73
2017-07-20T13:32:25.862Z,30.62
2017-07-20T13:34:58.377Z,30.98
2017-07-20T13:37:30.601Z,31.26
2017-07-20T13:40:02.861Z,30.99
2017-07-20T13:42:35.113Z,30.47
2017-07-20T13:45:07.450Z,29.67
2017-07-20T13:47:39.785Z,29.10
2017-07-20T13:50:12.209Z,28.87
2017-07-20T13:52:44.546Z,28.92
2017-07-20T13:55:16.926Z,29.48
2017-07-20T13:57:49.136Z,29.74
2017-07-20T14:00:21.594Z,30.20
2017-07-20T14:02:53.929Z,30.78
2017-07-20T14:05:26.413Z,30.78
2017-07-20T14:07:58.792Z,30.72
2017-07-20T14:10:31.164Z,30.38
2017-07-20T14:13:03.554Z,29.63
2017-07-20T14:15:35.864Z,29.31
2017-07-20T14:18:08.278Z,29.56
2017-07-20T14:20:40.830Z,29.65
2017-07-20T14:23:13.153Z,29.67
2017-07-20T14:25:45.524Z,29.83
2017-07-20T14:28:17.929Z,29.86
2017-07-20T14:30:50.294Z,29.68
2017-07-20T14:33:22.725Z,29.77
2017-07-20T14:35:55.158Z,29.78
2017-07-20T14:38:27.424Z,29.38
2017-07-20T14:40:59.868Z,29.43
2017-07-20T14:43:32.632Z,29.54
2017-07-20T14:46:04.818Z,29.42
2017-07-20T14:48:37.267Z,29.47
2017-07-20T14:51:09.689Z,29.53
2017-07-20T14:53:42.034Z,29.77
2017-07-20T14:56:14.473Z,29.53
2017-07-20T14:58:46.886Z,29.10
2017-07-20T15:01:19.376Z,28.74
2017-07-20T15:03:51.826Z,28.25
2017-07-20T15:06:24.414Z,27.93
2017-07-20T15:08:56.773Z,27.81
2017-07-20T15:11:29.078Z,27.16
2017-07-20T15:14:01.475Z,25.77
2017-07-20T15:16:33.725Z,24.82
2017-07-20T15:19:06.277Z,23.20
2017-07-20T15:21:38.492Z,22.69
2017-07-20T15:24:10.841Z,22.17
2017-07-20T15:26:43.223Z,22.13
2017-07-20T15:29:15.688Z,21.97
2017-07-20T15:31:56.812Z,22.07
2017-07-20T15:34:29.330Z,22.35
2017-07-20T15:37:01.594Z,22.69
2017-07-20T15:39:33.926Z,23.08
2017-07-20T15:42:06.463Z,23.46
2017-07-20T15:44:38.878Z,23.83
2017-07-20T15:47:11.488Z,24.19
2017-07-20T15:49:43.862Z,24.36
2017-07-20T15:52:15.981Z,24.36
2017-07-20T15:54:48.375Z,24.49
2017-07-20T15:57:20.842Z,24.57
2017-07-20T15:59:53.033Z,24.63
2017-07-20T16:02:25.474Z,24.55
2017-07-20T16:04:57.680Z,24.64
2017-07-20T16:07:30.112Z,24.74
2017-07-20T16:10:02.538Z,24.76
2017-07-20T16:12:34.928Z,24.81
2017-07-20T16:15:07.482Z,24.97
2017-07-20T16:17:39.892Z,24.99
2017-07-20T16:20:12.114Z,25.16
2017-07-20T16:22:44.550Z,25.43
2017-07-20T16:25:16.893Z,25.51
2017-07-20T16:27:49.389Z,25.25
2017-07-20T16:30:21.763Z,25.23
2017-07-20T16:32:54.054Z,25.30
2017-07-20T16:35:26.684Z,25.38
2017-07-20T16:37:59.897Z,25.41
2017-07-20T16:40:32.345Z,25.51
2017-07-20T16:43:05.821Z,25.65
2017-07-20T16:45:38.234Z,25.77
2017-07-20T16:48:10.632Z,25.97
2017-07-20T16:50:42.975Z,26.07
2017-07-20T16:53:15.487Z,26.17
2017-07-20T16:55:47.747Z,26.13
2017-07-20T16:58:20.100Z,26.10
2017-07-20T17:00:52.449Z,26.02
2017-07-20T17:03:24.978Z,25.60
2017-07-20T17:05:57.325Z,25.60
2017-07-20T17:08:29.814Z,25.64
2017-07-20T17:11:02.289Z,25.69
2017-07-20T17:13:34.722Z,25.78
2017-07-20T17:16:07.130Z,25.86
2017-07-20T17:18:39.649Z,25.82
2017-07-20T17:21:12.094Z,25.69
2017-07-20T17:23:44.596Z,25.66
2017-07-20T17:26:16.935Z,25.67
2017-07-20T17:28:49.238Z,25.70
2017-07-20T17:31:21.603Z,25.70
2017-07-20T17:33:54.145Z,25.55
2017-07-20T17:36:26.609Z,25.46
2017-07-20T17:38:58.936Z,25.43
2017-07-20T17:41:31.162Z,25.45
2017-07-20T17:44:03.566Z,25.42
2017-07-20T17:46:35.793Z,25.44
2017-07-20T17:49:08.218Z,25.42
2017-07-20T17:51:40.746Z,25.53
2017-07-20T17:54:13.058Z,25.51
2017-07-20T17:56:45.283Z,25.50
2017-07-20T17:59:17.746Z,25.51
2017-07-20T18:01:50.098Z,25.46
2017-07-20T18:04:22.589Z,25.48
2017-07-20T18:06:55.041Z,25.38
2017-07-20T18:09:27.392Z,25.40
2017-07-20T18:11:59.741Z,25.39
2017-07-20T18:14:33.128Z,25.36
2017-07-20T18:17:05.721Z,25.26
2017-07-20T18:19:38.217Z,25.19
2017-07-20T18:22:10.949Z,25.08
2017-07-20T18:24:43.169Z,25.02
2017-07-20T18:27:15.642Z,24.84
2017-07-20T18:29:47.950Z,24.69
2017-07-20T18:32:20.370Z,24.69
2017-07-20T18:34:52.730Z,24.62
2017-07-20T18:37:25.030Z,24.56
2017-07-20T18:39:57.514Z,24.56
2017-07-20T18:42:29.874Z,24.56
2017-07-20T18:45:02.405Z,24.56
2017-07-20T18:47:34.789Z,24.58
2017-07-20T18:50:07.215Z,24.53
2017-07-20T18:52:39.641Z,24.52
2017-07-20T18:55:12.070Z,24.48
2017-07-20T18:57:44.459Z,24.43
2017-07-20T19:00:17.376Z,24.41
2017-07-20T19:02:49.269Z,24.34
2017-07-20T19:05:21.638Z,24.30
2017-07-20T19:07:54.057Z,24.24
2017-07-20T19:10:26.577Z,24.10
2017-07-20T19:12:58.762Z,23.94
2017-07-20T19:15:31.182Z,23.82
2017-07-20T19:18:03.489Z,23.74
2017-07-20T19:20:35.914Z,23.62
2017-07-20T19:23:08.265Z,23.53
2017-07-20T19:25:40.646Z,23.42
2017-07-20T19:28:12.923Z,23.33
2017-07-20T19:30:45.309Z,23.27
2017-07-20T19:33:17.577Z,23.25
2017-07-20T19:35:49.973Z,23.21
2017-07-20T19:38:22.155Z,23.16
2017-07-20T19:40:55.062Z,23.13
2017-07-20T19:43:27.109Z,23.05
2017-07-20T19:45:59.570Z,23.04
2017-07-20T19:48:31.825Z,22.99
2017-07-20T19:51:04.181Z,22.90
2017-07-20T19:53:36.419Z,22.89
2017-07-20T19:56:08.817Z,22.83
2017-07-20T19:58:41.108Z,22.86
2017-07-20T20:01:13.448Z,22.87
2017-07-20T20:03:45.729Z,22.85
2017-07-20T20:06:18.204Z,22.86
2017-07-20T20:08:50.481Z,22.75
2017-07-20T20:11:22.878Z,22.70
2017-07-20T20:13:55.326Z,22.68
2017-07-20T20:16:27.644Z,22.63
2017-07-20T20:31:56.519Z,22.97
2017-07-20T20:34:28.581Z,22.68
2017-07-20T20:37:00.994Z,22.38
2017-07-20T20:39:33.312Z,22.34
2017-07-20T20:42:06.697Z,22.23
2017-07-20T20:44:39.605Z,22.19
2017-07-20T20:47:11.530Z,22.12
2017-07-20T20:49:44.037Z,22.12
2017-07-20T20:52:18.473Z,22.11
2017-07-20T20:54:51.089Z,22.14
2017-07-20T20:57:23.137Z,22.05
2017-07-20T20:59:55.481Z,22.03
2017-07-20T21:02:27.896Z,21.93
2017-07-20T21:05:00.288Z,21.82
2017-07-20T21:07:32.654Z,21.65
2017-07-20T21:10:05.052Z,21.68
2017-07-20T21:12:37.494Z,21.61
2017-07-20T21:15:10.024Z,21.52
2017-07-20T21:17:42.442Z,21.46
2017-07-20T21:20:14.833Z,21.49
2017-07-20T21:22:47.239Z,21.40
2017-07-20T21:25:19.621Z,21.18
2017-07-20T21:27:51.965Z,21.08
2017-07-20T21:30:24.450Z,21.05
2017-07-20T21:32:56.604Z,20.96
2017-07-20T21:35:28.969Z,20.86
2017-07-20T21:38:01.300Z,20.81
2017-07-20T21:40:33.746Z,20.78
2017-07-20T21:43:06.181Z,20.67
2017-07-20T21:45:38.866Z,20.55
2017-07-20T21:48:10.827Z,20.44
2017-07-20T21:50:43.257Z,20.36
2017-07-20T21:53:15.525Z,20.27
2017-07-20T21:55:47.974Z,20.19
2017-07-20T21:58:20.239Z,20.13
2017-07-20T22:00:53.114Z,20.08
2017-07-20T22:03:25.169Z,20.04
2017-07-20T22:05:57.549Z,20.06
2017-07-20T22:08:29.916Z,20.03
2017-07-20T22:11:02.489Z,19.96
2017-07-20T22:13:34.641Z,20.07
2017-07-20T22:16:07.174Z,20.08
2017-07-20T22:18:39.514Z,20.06
2017-07-20T22:21:11.918Z,20.12
2017-07-20T22:23:44.372Z,20.18
2017-07-20T22:26:16.853Z,20.23
2017-07-20T22:28:49.236Z,20.19
2017-07-20T22:31:21.649Z,20.13
2017-07-20T22:33:54.058Z,20.14
2017-07-20T22:36:26.452Z,20.12
2017-07-20T22:38:58.882Z,20.01
2017-07-20T22:41:31.289Z,19.95
2017-07-20T22:44:03.654Z,19.96
2017-07-20T22:46:36.092Z,19.90
2017-07-20T22:49:08.693Z,19.71
2017-07-20T22:51:41.085Z,19.67
2017-07-20T22:54:13.456Z,19.50
2017-07-20T22:56:45.768Z,19.47
2017-07-20T22:59:18.092Z,19.43
2017-07-20T23:01:50.437Z,19.42
2017-07-20T23:04:22.829Z,19.45
2017-07-20T23:06:55.265Z,19.48
2017-07-20T23:09:27.626Z,19.56
2017-07-20T23:12:00.021Z,19.52
2017-07-20T23:14:32.346Z,19.51
2017-07-20T23:17:04.830Z,19.59
2017-07-20T23:19:37.194Z,19.65
2017-07-20T23:22:09.600Z,19.71
2017-07-20T23:24:41.941Z,19.64
2017-07-20T23:27:14.409Z,19.60
2017-07-20T23:29:46.730Z,19.54
2017-07-20T23:32:19.237Z,19.47
2017-07-20T23:34:51.538Z,19.41
2017-07-20T23:37:23.925Z,19.40
2017-07-20T23:39:56.182Z,19.34
2017-07-20T23:42:29.569Z,19.31
2017-07-20T23:45:02.065Z,19.21
2017-07-20T23:47:34.470Z,19.22
2017-07-20T23:50:06.892Z,19.13
2017-07-20T23:52:39.360Z,19.00
2017-07-20T23:55:11.678Z,18.92
2017-07-20T23:57:43.937Z,18.90
